KASTKMMV

Guest
Details From KAST - Astoria Rgnl
To KMMV - MC MINNVILLE MUNI
Flight Number -
Tags generated
Created
Modified
Stats Distance 66 nm / 122 km
Max Altitude 500 ft / 152 m
Waypoints 3
Social Downloads 0
Likes 0
Share VATSIM

Download

Looking for another format? Having issues loading an existing format? Contact us
Advertisement - Login to hide

Notes

Basic altitude profile: - Ascent Rate: 2500ft/min - Ascent Speed: 250kts - Cruise Altitude: 35000ft - Cruise Speed: 420kts - Descent Rate: 1500ft/min - Descent Speed: 250kts Options: - Use NATs: yes - Use PACOTS: yes - Use low airways: yes - Use high airways: no

Route

KAST OLORE KMMV

ID Type Via Altitude Latitude Longitude Leg Dist Tot Dist Heading (true) Name
O KAST APT - 0 ft / 0 m 46.15789˚ -123.87872˚ - 0 nm - Astoria Rgnl
OLORE FIX - 500 ft / 152 m 45.23536˚ -123.14506˚ 63 nm 63 nm 151° / 151° -
O KMMV APT - 0 ft / 0 m 45.19435˚ -123.13567˚ 2 nm 65 nm 171° / 171° MC MINNVILLE MUNI

Altitude Profile

Advertisement - Login to hide

KAST

Details ICAO KAST (AST)
Name Astoria Rgnl
Region United States
Timezone America/Los_Angeles (UTC-8.0)
Stats Elevation 15 ft / 5 m (AMSL)
Location 46.157894° -123.878724°
Runways 2
Magnetic Variation 15.635° E

METAR

KAST 152055Z AUTO 00000KT 10SM FEW007 BKN039 08/07 A3023 RMK AO2 SLP236 60001 T00780067 58005

Decode

TAF

KAST 151731Z 1518/1618 00000KT 1SM -RA BR OVC006 FM151930 31010KT P6SM -SHRA OVC035 FM160200 30010KT P6SM VCSH BKN035 FM160500 27006KT P6SM BKN035

Decode

Departure Runways

ID Width Length Bearing (true) Bearing (mag) Surface Threshold Offset Overrun Length
08 98 ft / 30 m 5,779 ft / 1,762 m 95.49° 79.85° Asphalt 302 ft / 92 m 0 ft / 0 m
13 98 ft / 30 m 4,997 ft / 1,523 m 153.70° 138.06° Asphalt 328 ft / 100 m 0 ft / 0 m
26 98 ft / 30 m 5,779 ft / 1,762 m 275.51° 259.87° Asphalt 705 ft / 215 m 0 ft / 0 m
31 98 ft / 30 m 4,997 ft / 1,523 m 333.70° 318.06° Asphalt 203 ft / 62 m 0 ft / 0 m

KMMV

Details ICAO KMMV (MMV)
Name MC MINNVILLE MUNI
Region United States
Timezone America/Los_Angeles (UTC-8.0)
Stats Elevation 163 ft / 50 m (AMSL)
Location 45.194348° -123.135667°
Runways 2
Magnetic Variation 15.291° E

METAR

KMMV 152110Z AUTO 00000KT 10SM SCT024 BKN042 BKN120 03/01 A3027 RMK AO2 T00330006

Decode

TAF

Not found

Destination Runways

ID Width Length Bearing (true) Bearing (mag) Surface Threshold Offset Overrun Length
04 151 ft / 46 m 5,411 ft / 1,649 m 57.10° 41.81° Asphalt 0 ft / 0 m 1,001 ft / 305 m
17 151 ft / 46 m 4,680 ft / 1,427 m 185.87° 170.58° Asphalt 0 ft / 0 m 0 ft / 0 m
22 151 ft / 46 m 5,411 ft / 1,649 m 237.12° 221.83° Asphalt 0 ft / 0 m 0 ft / 0 m
35 151 ft / 46 m 4,680 ft / 1,427 m 5.87° 350.58° Asphalt 0 ft / 0 m 0 ft / 0 m

Approach Navaids

Runway Type Ident Frequency Range Bearing (true) Bearing (mag) Slope Elevation
22 Localiser IMMV 110.90 MHz 18 nm / 33 km 237.09° 221.80° - 158 ft / 48 m (AMSL)
22 Glidescope IMMV 110.90 MHz 10 nm / 19 km 237.11° 221.82° 3.00° 160 ft / 49 m (AMSL)